Kirsch Municipal Airport

About
Name: Kirsch Municipal Airport
Identifier:  IRS/KIRS
Local Time:  23. Aug 01:23 EDT
Location
Flights per Day
0 flights
Distance: 521km (324mi)
Punctuality
0% (0 flights per day delayed)
Delay Average: 15 minutes
Current Weather
 16 C (Humidity: 77%)
  4kt (7km/h / 4mph) from 30°
  16km (10 mi.)
 
 METAR KIRS 230458Z AUTO 03004KT 10SM CLR 16/12 A3010 RMK AO2 T01550120

Current Flights

Departures
Number Departure To Airline
Arrivals
Number Arrival From Airline

Current Delays

Departures
N/A
Arrivals
N/A

Destinations

Top Destinations
Airport Flights
per week
Seats
per week
  Madison (MSN) 0 - 0 0
  Grand Rapids (GRR) 0 - 0 0
  Mount Pleasant (MOP) 0 - 0 0
  South Bend (SBN) 0 - 0 0
  Chicago (MDW) 0 - 0 0
  Champaign (CMI) 0 - 0 0
  Chicago (DPA) 0 - 0 0
  Springdale (SPZ) 0 - 0 0
  Millington (NQA) 0 - 0 0
  Avoca (AVP) 0 - 0 0
  Elkhart (EKI) 0 - 0 0

Airlines & Planes

Top Airlines
Airline Flights
per Day
Seats
per Day
  Novair 0 -
Nordwind Airlines 0 -
  Nolinor Aviation 0 -
  Flybe Nordic 0 -
Top Plane Types
Model Flights Seats
Beech 58 0.1/day - 0
Piper PA-46-350P Malibu Mirage 0.1/day - 0
Piper PA-32R-301T Saratoga II 0.1/day - 0
Beech B200 Super King Air 0.0/day - 0